sensor_id;sensor_type;location;lat;lon;timestamp;pressure;altitude;pressure_sealevel;temperature
12061;BMP180;6091;51.432;6.880;2022-07-23T00:00:26;101035.00;;;29.90
12061;BMP180;6091;51.432;6.880;2022-07-23T00:02:53;101046.00;;;29.90
12061;BMP180;6091;51.432;6.880;2022-07-23T00:05:20;101053.00;;;29.90
12061;BMP180;6091;51.432;6.880;2022-07-23T00:07:47;101047.00;;;29.90
12061;BMP180;6091;51.432;6.880;2022-07-23T00:10:14;101058.00;;;29.90
12061;BMP180;6091;51.432;6.880;2022-07-23T00:12:42;101053.00;;;29.90
12061;BMP180;6091;51.432;6.880;2022-07-23T00:15:18;101054.00;;;29.90
12061;BMP180;6091;51.432;6.880;2022-07-23T00:17:45;101057.00;;;29.90
12061;BMP180;6091;51.432;6.880;2022-07-23T00:20:13;101054.00;;;29.90
12061;BMP180;6091;51.432;6.880;2022-07-23T00:22:53;101058.00;;;29.90
12061;BMP180;6091;51.432;6.880;2022-07-23T00:25:22;101050.00;;;29.80
12061;BMP180;6091;51.432;6.880;2022-07-23T00:28:00;101045.00;;;29.80
12061;BMP180;6091;51.432;6.880;2022-07-23T00:30:28;101049.00;;;29.80
12061;BMP180;6091;51.432;6.880;2022-07-23T00:33:04;101041.00;;;29.80
12061;BMP180;6091;51.432;6.880;2022-07-23T00:35:35;101042.00;;;29.80
12061;BMP180;6091;51.432;6.880;2022-07-23T00:38:04;101038.00;;;29.80
12061;BMP180;6091;51.432;6.880;2022-07-23T00:40:32;101038.00;;;29.80
12061;BMP180;6091;51.432;6.880;2022-07-23T00:42:59;101045.00;;;29.70
12061;BMP180;6091;51.432;6.880;2022-07-23T00:45:27;101047.00;;;29.70
12061;BMP180;6091;51.432;6.880;2022-07-23T00:47:54;101041.00;;;29.70
12061;BMP180;6091;51.432;6.880;2022-07-23T00:50:22;101052.00;;;29.70
12061;BMP180;6091;51.432;6.880;2022-07-23T00:52:50;101051.00;;;29.70
12061;BMP180;6091;51.432;6.880;2022-07-23T00:55:20;101045.00;;;29.70
12061;BMP180;6091;51.432;6.880;2022-07-23T00:57:48;101046.00;;;29.70
12061;BMP180;6091;51.432;6.880;2022-07-23T01:00:22;101054.00;;;29.70
12061;BMP180;6091;51.432;6.880;2022-07-23T01:02:50;101052.00;;;29.60
12061;BMP180;6091;51.432;6.880;2022-07-23T01:05:17;101052.00;;;29.60
12061;BMP180;6091;51.432;6.880;2022-07-23T01:07:52;101054.00;;;29.70
12061;BMP180;6091;51.432;6.880;2022-07-23T01:10:23;101060.00;;;29.60
12061;BMP180;6091;51.432;6.880;2022-07-23T01:15:29;101054.00;;;29.60
12061;BMP180;6091;51.432;6.880;2022-07-23T01:17:56;101051.00;;;29.60
12061;BMP180;6091;51.432;6.880;2022-07-23T01:20:24;101045.00;;;29.60
12061;BMP180;6091;51.432;6.880;2022-07-23T01:22:52;101047.00;;;29.60
12061;BMP180;6091;51.432;6.880;2022-07-23T01:25:20;101048.00;;;29.60
12061;BMP180;6091;51.432;6.880;2022-07-23T01:27:48;101046.00;;;29.60
12061;BMP180;6091;51.432;6.880;2022-07-23T01:30:15;101054.00;;;29.60
12061;BMP180;6091;51.432;6.880;2022-07-23T01:32:42;101053.00;;;29.60
12061;BMP180;6091;51.432;6.880;2022-07-23T01:35:10;101049.00;;;29.60
12061;BMP180;6091;51.432;6.880;2022-07-23T01:37:37;101049.00;;;29.60
12061;BMP180;6091;51.432;6.880;2022-07-23T01:40:06;101055.00;;;29.60
12061;BMP180;6091;51.432;6.880;2022-07-23T01:42:33;101040.00;;;29.60
12061;BMP180;6091;51.432;6.880;2022-07-23T01:45:01;101045.00;;;29.60
12061;BMP180;6091;51.432;6.880;2022-07-23T01:47:28;101046.00;;;29.60
12061;BMP180;6091;51.432;6.880;2022-07-23T01:49:54;101039.00;;;29.60
12061;BMP180;6091;51.432;6.880;2022-07-23T01:52:21;101031.00;;;29.60
12061;BMP180;6091;51.432;6.880;2022-07-23T01:54:48;101038.00;;;29.60
12061;BMP180;6091;51.432;6.880;2022-07-23T01:57:15;101039.00;;;29.50
12061;BMP180;6091;51.432;6.880;2022-07-23T01:59:42;101043.00;;;29.50
12061;BMP180;6091;51.432;6.880;2022-07-23T02:02:09;101040.00;;;29.50
12061;BMP180;6091;51.432;6.880;2022-07-23T02:04:37;101041.00;;;29.60
12061;BMP180;6091;51.432;6.880;2022-07-23T02:07:05;101048.00;;;29.60
12061;BMP180;6091;51.432;6.880;2022-07-23T02:09:32;101051.00;;;29.60
12061;BMP180;6091;51.432;6.880;2022-07-23T02:12:00;101035.00;;;29.50
12061;BMP180;6091;51.432;6.880;2022-07-23T02:14:27;101035.00;;;29.50
12061;BMP180;6091;51.432;6.880;2022-07-23T02:16:54;101040.00;;;29.60
12061;BMP180;6091;51.432;6.880;2022-07-23T02:19:21;101036.00;;;29.50
12061;BMP180;6091;51.432;6.880;2022-07-23T02:21:49;101026.00;;;29.50
12061;BMP180;6091;51.432;6.880;2022-07-23T02:24:16;101025.00;;;29.50
12061;BMP180;6091;51.432;6.880;2022-07-23T02:26:43;101029.00;;;29.50
12061;BMP180;6091;51.432;6.880;2022-07-23T02:29:10;101032.00;;;29.50
12061;BMP180;6091;51.432;6.880;2022-07-23T02:31:38;101039.00;;;29.50
12061;BMP180;6091;51.432;6.880;2022-07-23T02:34:05;101033.00;;;29.50
12061;BMP180;6091;51.432;6.880;2022-07-23T02:36:33;101040.00;;;29.50
12061;BMP180;6091;51.432;6.880;2022-07-23T02:39:00;101036.00;;;29.50
12061;BMP180;6091;51.432;6.880;2022-07-23T02:41:28;101031.00;;;29.50
12061;BMP180;6091;51.432;6.880;2022-07-23T02:43:55;101032.00;;;29.50
12061;BMP180;6091;51.432;6.880;2022-07-23T02:46:22;101026.00;;;29.50
12061;BMP180;6091;51.432;6.880;2022-07-23T02:48:49;101028.00;;;29.50
12061;BMP180;6091;51.432;6.880;2022-07-23T02:51:16;101031.00;;;29.50
12061;BMP180;6091;51.432;6.880;2022-07-23T02:53:43;101027.00;;;29.50
12061;BMP180;6091;51.432;6.880;2022-07-23T02:56:10;101031.00;;;29.50
12061;BMP180;6091;51.432;6.880;2022-07-23T02:58:37;101036.00;;;29.50
12061;BMP180;6091;51.432;6.880;2022-07-23T03:01:05;101040.00;;;29.50
12061;BMP180;6091;51.432;6.880;2022-07-23T03:03:32;101040.00;;;29.50
12061;BMP180;6091;51.432;6.880;2022-07-23T03:05:59;101031.00;;;29.50
12061;BMP180;6091;51.432;6.880;2022-07-23T03:08:26;101030.00;;;29.50
12061;BMP180;6091;51.432;6.880;2022-07-23T03:10:54;101033.00;;;29.50
12061;BMP180;6091;51.432;6.880;2022-07-23T03:13:21;101031.00;;;29.50
12061;BMP180;6091;51.432;6.880;2022-07-23T03:15:48;101026.00;;;29.40
12061;BMP180;6091;51.432;6.880;2022-07-23T03:18:15;101028.00;;;29.40
12061;BMP180;6091;51.432;6.880;2022-07-23T03:20:42;101027.00;;;29.40
12061;BMP180;6091;51.432;6.880;2022-07-23T03:23:09;101020.00;;;29.40
12061;BMP180;6091;51.432;6.880;2022-07-23T03:25:36;101028.00;;;29.40
12061;BMP180;6091;51.432;6.880;2022-07-23T03:28:03;101019.00;;;29.40
12061;BMP180;6091;51.432;6.880;2022-07-23T03:30:30;101025.00;;;29.40
12061;BMP180;6091;51.432;6.880;2022-07-23T03:32:57;101030.00;;;29.40
12061;BMP180;6091;51.432;6.880;2022-07-23T03:35:24;101026.00;;;29.40
12061;BMP180;6091;51.432;6.880;2022-07-23T03:37:51;101029.00;;;29.40
12061;BMP180;6091;51.432;6.880;2022-07-23T03:40:18;101027.00;;;29.40
12061;BMP180;6091;51.432;6.880;2022-07-23T03:42:46;101032.00;;;29.40
12061;BMP180;6091;51.432;6.880;2022-07-23T03:45:13;101024.00;;;29.40
12061;BMP180;6091;51.432;6.880;2022-07-23T03:47:40;101028.00;;;29.40
12061;BMP180;6091;51.432;6.880;2022-07-23T03:50:07;101028.00;;;29.40
12061;BMP180;6091;51.432;6.880;2022-07-23T03:52:35;101034.00;;;29.30
12061;BMP180;6091;51.432;6.880;2022-07-23T03:55:03;101033.00;;;29.30
12061;BMP180;6091;51.432;6.880;2022-07-23T03:57:30;101041.00;;;29.30
12061;BMP180;6091;51.432;6.880;2022-07-23T03:59:57;101047.00;;;29.30
12061;BMP180;6091;51.432;6.880;2022-07-23T04:02:24;101046.00;;;29.30
12061;BMP180;6091;51.432;6.880;2022-07-23T04:04:52;101040.00;;;29.30
12061;BMP180;6091;51.432;6.880;2022-07-23T04:07:19;101046.00;;;29.30
12061;BMP180;6091;51.432;6.880;2022-07-23T04:09:46;101046.00;;;29.30
12061;BMP180;6091;51.432;6.880;2022-07-23T04:12:14;101043.00;;;29.30
12061;BMP180;6091;51.432;6.880;2022-07-23T04:14:41;101035.00;;;29.30
12061;BMP180;6091;51.432;6.880;2022-07-23T04:17:08;101037.00;;;29.30
12061;BMP180;6091;51.432;6.880;2022-07-23T04:19:35;101046.00;;;29.30
12061;BMP180;6091;51.432;6.880;2022-07-23T04:22:07;101052.00;;;29.30
12061;BMP180;6091;51.432;6.880;2022-07-23T04:24:35;101052.00;;;29.30
12061;BMP180;6091;51.432;6.880;2022-07-23T04:27:08;101059.00;;;29.30
12061;BMP180;6091;51.432;6.880;2022-07-23T04:29:35;101061.00;;;29.30
12061;BMP180;6091;51.432;6.880;2022-07-23T04:32:02;101054.00;;;29.30
12061;BMP180;6091;51.432;6.880;2022-07-23T04:34:29;101071.00;;;29.30
12061;BMP180;6091;51.432;6.880;2022-07-23T04:36:57;101062.00;;;29.30
12061;BMP180;6091;51.432;6.880;2022-07-23T04:39:26;101062.00;;;29.30
12061;BMP180;6091;51.432;6.880;2022-07-23T04:41:53;101051.00;;;29.30
12061;BMP180;6091;51.432;6.880;2022-07-23T04:44:20;101063.00;;;29.30
12061;BMP180;6091;51.432;6.880;2022-07-23T04:46:48;101072.00;;;29.30
12061;BMP180;6091;51.432;6.880;2022-07-23T04:49:17;101058.00;;;29.30
12061;BMP180;6091;51.432;6.880;2022-07-23T04:51:44;101076.00;;;29.30
12061;BMP180;6091;51.432;6.880;2022-07-23T04:54:12;101078.00;;;29.30
12061;BMP180;6091;51.432;6.880;2022-07-23T04:56:38;101074.00;;;29.30
12061;BMP180;6091;51.432;6.880;2022-07-23T04:59:05;101072.00;;;29.30
12061;BMP180;6091;51.432;6.880;2022-07-23T05:01:33;101078.00;;;29.30
12061;BMP180;6091;51.432;6.880;2022-07-23T05:04:00;101072.00;;;29.30
12061;BMP180;6091;51.432;6.880;2022-07-23T05:06:27;101078.00;;;29.30
12061;BMP180;6091;51.432;6.880;2022-07-23T05:08:54;101088.00;;;29.30
12061;BMP180;6091;51.432;6.880;2022-07-23T05:11:22;101079.00;;;29.30
12061;BMP180;6091;51.432;6.880;2022-07-23T05:13:53;101086.00;;;29.30
12061;BMP180;6091;51.432;6.880;2022-07-23T05:16:23;101095.00;;;29.30
12061;BMP180;6091;51.432;6.880;2022-07-23T05:18:50;101096.00;;;29.30
12061;BMP180;6091;51.432;6.880;2022-07-23T05:21:17;101086.00;;;29.30
12061;BMP180;6091;51.432;6.880;2022-07-23T05:23:44;101086.00;;;29.30
12061;BMP180;6091;51.432;6.880;2022-07-23T05:26:11;101100.00;;;29.30
12061;BMP180;6091;51.432;6.880;2022-07-23T05:28:39;101090.00;;;29.30
12061;BMP180;6091;51.432;6.880;2022-07-23T05:31:06;101102.00;;;29.30
12061;BMP180;6091;51.432;6.880;2022-07-23T05:33:34;101106.00;;;29.30
12061;BMP180;6091;51.432;6.880;2022-07-23T05:36:04;101109.00;;;29.30
12061;BMP180;6091;51.432;6.880;2022-07-23T05:38:35;101109.00;;;29.30
12061;BMP180;6091;51.432;6.880;2022-07-23T05:41:02;101109.00;;;29.30
12061;BMP180;6091;51.432;6.880;2022-07-23T05:43:29;101109.00;;;29.30
12061;BMP180;6091;51.432;6.880;2022-07-23T05:45:57;101106.00;;;29.30
12061;BMP180;6091;51.432;6.880;2022-07-23T05:48:24;101114.00;;;29.40
12061;BMP180;6091;51.432;6.880;2022-07-23T05:50:51;101108.00;;;29.40
12061;BMP180;6091;51.432;6.880;2022-07-23T05:53:18;101103.00;;;29.40
12061;BMP180;6091;51.432;6.880;2022-07-23T05:55:45;101109.00;;;29.40
12061;BMP180;6091;51.432;6.880;2022-07-23T05:58:12;101113.00;;;29.40
12061;BMP180;6091;51.432;6.880;2022-07-23T06:00:41;101112.00;;;29.30
12061;BMP180;6091;51.432;6.880;2022-07-23T06:03:11;101115.00;;;29.40
12061;BMP180;6091;51.432;6.880;2022-07-23T06:05:38;101108.00;;;29.40
12061;BMP180;6091;51.432;6.880;2022-07-23T06:08:10;101115.00;;;29.40
12061;BMP180;6091;51.432;6.880;2022-07-23T06:10:37;101122.00;;;29.40
12061;BMP180;6091;51.432;6.880;2022-07-23T06:13:04;101117.00;;;29.40
12061;BMP180;6091;51.432;6.880;2022-07-23T06:15:34;101130.00;;;29.40
12061;BMP180;6091;51.432;6.880;2022-07-23T06:18:01;101120.00;;;29.40
12061;BMP180;6091;51.432;6.880;2022-07-23T06:20:29;101131.00;;;29.40
12061;BMP180;6091;51.432;6.880;2022-07-23T06:22:58;101139.00;;;29.40
12061;BMP180;6091;51.432;6.880;2022-07-23T06:25:25;101134.00;;;29.40
12061;BMP180;6091;51.432;6.880;2022-07-23T06:27:52;101124.00;;;29.40
12061;BMP180;6091;51.432;6.880;2022-07-23T06:30:20;101136.00;;;29.40
12061;BMP180;6091;51.432;6.880;2022-07-23T06:32:50;101135.00;;;29.40
12061;BMP180;6091;51.432;6.880;2022-07-23T06:35:17;101144.00;;;29.40
12061;BMP180;6091;51.432;6.880;2022-07-23T06:37:45;101140.00;;;29.40
12061;BMP180;6091;51.432;6.880;2022-07-23T06:40:14;101144.00;;;29.40
12061;BMP180;6091;51.432;6.880;2022-07-23T06:42:41;101141.00;;;29.40
12061;BMP180;6091;51.432;6.880;2022-07-23T06:45:09;101148.00;;;29.40
12061;BMP180;6091;51.432;6.880;2022-07-23T06:47:36;101142.00;;;29.40
12061;BMP180;6091;51.432;6.880;2022-07-23T06:50:04;101148.00;;;29.40
12061;BMP180;6091;51.432;6.880;2022-07-23T06:52:32;101144.00;;;29.40
12061;BMP180;6091;51.432;6.880;2022-07-23T06:55:01;101149.00;;;29.40
12061;BMP180;6091;51.432;6.880;2022-07-23T06:57:29;101149.00;;;29.40
12061;BMP180;6091;51.432;6.880;2022-07-23T07:00:00;101149.00;;;29.40
12061;BMP180;6091;51.432;6.880;2022-07-23T07:02:27;101142.00;;;29.40
12061;BMP180;6091;51.432;6.880;2022-07-23T07:04:54;101144.00;;;29.40
12061;BMP180;6091;51.432;6.880;2022-07-23T07:07:30;101148.00;;;29.30
12061;BMP180;6091;51.432;6.880;2022-07-23T07:09:57;101149.00;;;29.30
12061;BMP180;6091;51.432;6.880;2022-07-23T07:12:24;101152.00;;;29.30
12061;BMP180;6091;51.432;6.880;2022-07-23T07:14:51;101151.00;;;29.30
12061;BMP180;6091;51.432;6.880;2022-07-23T07:17:20;101155.00;;;29.30
12061;BMP180;6091;51.432;6.880;2022-07-23T07:19:47;101145.00;;;29.30
12061;BMP180;6091;51.432;6.880;2022-07-23T07:22:14;101154.00;;;29.30
12061;BMP180;6091;51.432;6.880;2022-07-23T07:24:41;101157.00;;;29.40
12061;BMP180;6091;51.432;6.880;2022-07-23T07:27:08;101152.00;;;29.40
12061;BMP180;6091;51.432;6.880;2022-07-23T07:29:35;101155.00;;;29.40
12061;BMP180;6091;51.432;6.880;2022-07-23T07:32:02;101166.00;;;29.50
12061;BMP180;6091;51.432;6.880;2022-07-23T07:34:29;101161.00;;;29.50
12061;BMP180;6091;51.432;6.880;2022-07-23T07:36:56;101165.00;;;29.60
12061;BMP180;6091;51.432;6.880;2022-07-23T07:39:23;101163.00;;;29.60
12061;BMP180;6091;51.432;6.880;2022-07-23T07:41:50;101163.00;;;29.60
12061;BMP180;6091;51.432;6.880;2022-07-23T07:44:17;101165.00;;;29.60
12061;BMP180;6091;51.432;6.880;2022-07-23T07:46:45;101163.00;;;29.60
12061;BMP180;6091;51.432;6.880;2022-07-23T07:49:12;101169.00;;;29.60
12061;BMP180;6091;51.432;6.880;2022-07-23T07:51:42;101173.00;;;29.60
12061;BMP180;6091;51.432;6.880;2022-07-23T07:54:12;101175.00;;;29.60
12061;BMP180;6091;51.432;6.880;2022-07-23T07:56:39;101171.00;;;29.60
12061;BMP180;6091;51.432;6.880;2022-07-23T07:59:07;101179.00;;;29.60
12061;BMP180;6091;51.432;6.880;2022-07-23T08:01:36;101184.00;;;29.60
12061;BMP180;6091;51.432;6.880;2022-07-23T08:04:04;101184.00;;;29.60
12061;BMP180;6091;51.432;6.880;2022-07-23T08:06:32;101191.00;;;29.60
12061;BMP180;6091;51.432;6.880;2022-07-23T08:08:59;101191.00;;;29.60
12061;BMP180;6091;51.432;6.880;2022-07-23T08:11:26;101184.00;;;29.60
12061;BMP180;6091;51.432;6.880;2022-07-23T08:13:53;101185.00;;;29.60
12061;BMP180;6091;51.432;6.880;2022-07-23T08:16:22;101185.00;;;29.50
12061;BMP180;6091;51.432;6.880;2022-07-23T08:18:50;101188.00;;;29.50
12061;BMP180;6091;51.432;6.880;2022-07-23T08:21:17;101196.00;;;29.50
12061;BMP180;6091;51.432;6.880;2022-07-23T08:23:44;101195.00;;;29.50
12061;BMP180;6091;51.432;6.880;2022-07-23T08:26:11;101195.00;;;29.50
12061;BMP180;6091;51.432;6.880;2022-07-23T08:28:38;101183.00;;;29.50
12061;BMP180;6091;51.432;6.880;2022-07-23T08:31:05;101195.00;;;29.50
12061;BMP180;6091;51.432;6.880;2022-07-23T08:33:32;101199.00;;;29.40
12061;BMP180;6091;51.432;6.880;2022-07-23T08:36:03;101198.00;;;29.50
12061;BMP180;6091;51.432;6.880;2022-07-23T08:38:32;101201.00;;;29.50
12061;BMP180;6091;51.432;6.880;2022-07-23T08:40:59;101201.00;;;29.50
12061;BMP180;6091;51.432;6.880;2022-07-23T08:43:30;101199.00;;;29.50
12061;BMP180;6091;51.432;6.880;2022-07-23T08:46:00;101205.00;;;29.50
12061;BMP180;6091;51.432;6.880;2022-07-23T08:48:30;101209.00;;;29.50
12061;BMP180;6091;51.432;6.880;2022-07-23T08:51:03;101211.00;;;29.50
12061;BMP180;6091;51.432;6.880;2022-07-23T08:53:32;101203.00;;;29.50
12061;BMP180;6091;51.432;6.880;2022-07-23T08:56:02;101196.00;;;29.50
12061;BMP180;6091;51.432;6.880;2022-07-23T08:58:31;101202.00;;;29.50
12061;BMP180;6091;51.432;6.880;2022-07-23T09:00:59;101201.00;;;29.50
12061;BMP180;6091;51.432;6.880;2022-07-23T09:03:37;101205.00;;;29.50
12061;BMP180;6091;51.432;6.880;2022-07-23T09:06:06;101198.00;;;29.50
12061;BMP180;6091;51.432;6.880;2022-07-23T09:08:37;101201.00;;;29.50
12061;BMP180;6091;51.432;6.880;2022-07-23T09:11:08;101204.00;;;29.50
12061;BMP180;6091;51.432;6.880;2022-07-23T09:13:50;101207.00;;;29.50
12061;BMP180;6091;51.432;6.880;2022-07-23T09:16:26;101207.00;;;29.50
12061;BMP180;6091;51.432;6.880;2022-07-23T09:19:06;101211.00;;;29.50
12061;BMP180;6091;51.432;6.880;2022-07-23T09:21:36;101205.00;;;29.60
12061;BMP180;6091;51.432;6.880;2022-07-23T09:24:11;101204.00;;;29.60
12061;BMP180;6091;51.432;6.880;2022-07-23T09:26:41;101204.00;;;29.70
12061;BMP180;6091;51.432;6.880;2022-07-23T09:29:22;101206.00;;;29.70
12061;BMP180;6091;51.432;6.880;2022-07-23T09:31:59;101209.00;;;29.80
12061;BMP180;6091;51.432;6.880;2022-07-23T09:34:33;101204.00;;;29.80
12061;BMP180;6091;51.432;6.880;2022-07-23T09:37:17;101206.00;;;29.70
12061;BMP180;6091;51.432;6.880;2022-07-23T09:39:47;101210.00;;;29.70
12061;BMP180;6091;51.432;6.880;2022-07-23T09:42:25;101210.00;;;29.80
12061;BMP180;6091;51.432;6.880;2022-07-23T09:44:58;101208.00;;;29.70
12061;BMP180;6091;51.432;6.880;2022-07-23T09:47:29;101206.00;;;29.80
12061;BMP180;6091;51.432;6.880;2022-07-23T09:50:06;101207.00;;;29.80
12061;BMP180;6091;51.432;6.880;2022-07-23T09:52:52;101203.00;;;29.80
12061;BMP180;6091;51.432;6.880;2022-07-23T09:55:19;101205.00;;;29.80
12061;BMP180;6091;51.432;6.880;2022-07-23T09:57:57;101206.00;;;29.80
12061;BMP180;6091;51.432;6.880;2022-07-23T10:00:25;101203.00;;;29.80
12061;BMP180;6091;51.432;6.880;2022-07-23T10:02:53;101213.00;;;29.80
12061;BMP180;6091;51.432;6.880;2022-07-23T10:05:21;101214.00;;;29.90
12061;BMP180;6091;51.432;6.880;2022-07-23T10:07:50;101211.00;;;29.90
12061;BMP180;6091;51.432;6.880;2022-07-23T10:10:21;101205.00;;;30.00
12061;BMP180;6091;51.432;6.880;2022-07-23T10:12:49;101213.00;;;30.00
12061;BMP180;6091;51.432;6.880;2022-07-23T10:15:19;101211.00;;;30.10
12061;BMP180;6091;51.432;6.880;2022-07-23T10:17:46;101211.00;;;30.10
12061;BMP180;6091;51.432;6.880;2022-07-23T10:20:15;101211.00;;;30.20
12061;BMP180;6091;51.432;6.880;2022-07-23T10:23:19;101217.00;;;30.20
12061;BMP180;6091;51.432;6.880;2022-07-23T10:26:23;101206.00;;;30.10
12061;BMP180;6091;51.432;6.880;2022-07-23T10:29:06;101205.00;;;30.20
12061;BMP180;6091;51.432;6.880;2022-07-23T10:38:07;101205.00;;;30.20
12061;BMP180;6091;51.432;6.880;2022-07-23T10:40:53;101202.00;;;30.30
12061;BMP180;6091;51.432;6.880;2022-07-23T10:43:20;101202.00;;;30.30
12061;BMP180;6091;51.432;6.880;2022-07-23T10:45:49;101200.00;;;30.30
12061;BMP180;6091;51.432;6.880;2022-07-23T10:48:20;101188.00;;;30.30
12061;BMP180;6091;51.432;6.880;2022-07-23T10:51:10;101197.00;;;30.30
12061;BMP180;6091;51.432;6.880;2022-07-23T10:53:56;101204.00;;;30.30
12061;BMP180;6091;51.432;6.880;2022-07-23T10:59:25;101190.00;;;30.30
12061;BMP180;6091;51.432;6.880;2022-07-23T11:01:52;101201.00;;;30.40
12061;BMP180;6091;51.432;6.880;2022-07-23T11:04:19;101197.00;;;30.40
12061;BMP180;6091;51.432;6.880;2022-07-23T11:09:45;101201.00;;;30.40
12061;BMP180;6091;51.432;6.880;2022-07-23T11:15:03;101197.00;;;30.50
12061;BMP180;6091;51.432;6.880;2022-07-23T11:17:34;101194.00;;;30.60
12061;BMP180;6091;51.432;6.880;2022-07-23T11:25:14;101188.00;;;30.80
12061;BMP180;6091;51.432;6.880;2022-07-23T11:27:44;101193.00;;;30.90
12061;BMP180;6091;51.432;6.880;2022-07-23T11:30:38;101190.00;;;31.00
12061;BMP180;6091;51.432;6.880;2022-07-23T11:35:42;101197.00;;;31.40
12061;BMP180;6091;51.432;6.880;2022-07-23T11:38:19;101197.00;;;31.70
12061;BMP180;6091;51.432;6.880;2022-07-23T11:40:51;101203.00;;;32.00
12061;BMP180;6091;51.432;6.880;2022-07-23T11:43:21;101206.00;;;32.40
12061;BMP180;6091;51.432;6.880;2022-07-23T11:45:53;101208.00;;;32.70
12061;BMP180;6091;51.432;6.880;2022-07-23T11:48:27;101196.00;;;33.10
12061;BMP180;6091;51.432;6.880;2022-07-23T11:50:56;101203.00;;;33.30
12061;BMP180;6091;51.432;6.880;2022-07-23T11:53:32;101211.00;;;33.60
12061;BMP180;6091;51.432;6.880;2022-07-23T11:56:18;101211.00;;;33.80
12061;BMP180;6091;51.432;6.880;2022-07-23T11:58:55;101217.00;;;33.90
12061;BMP180;6091;51.432;6.880;2022-07-23T12:01:26;101204.00;;;33.90
12061;BMP180;6091;51.432;6.880;2022-07-23T12:03:55;101203.00;;;34.10
12061;BMP180;6091;51.432;6.880;2022-07-23T12:06:24;101207.00;;;34.20
12061;BMP180;6091;51.432;6.880;2022-07-23T12:08:51;101206.00;;;34.40
12061;BMP180;6091;51.432;6.880;2022-07-23T12:11:18;101198.00;;;34.60
12061;BMP180;6091;51.432;6.880;2022-07-23T12:13:57;101202.00;;;34.80
12061;BMP180;6091;51.432;6.880;2022-07-23T12:16:24;101203.00;;;34.90
12061;BMP180;6091;51.432;6.880;2022-07-23T12:18:51;101205.00;;;35.00
12061;BMP180;6091;51.432;6.880;2022-07-23T12:21:19;101201.00;;;35.20
12061;BMP180;6091;51.432;6.880;2022-07-23T12:23:48;101207.00;;;35.30
12061;BMP180;6091;51.432;6.880;2022-07-23T12:26:15;101204.00;;;35.40
12061;BMP180;6091;51.432;6.880;2022-07-23T12:28:52;101203.00;;;35.50
12061;BMP180;6091;51.432;6.880;2022-07-23T12:31:26;101210.00;;;35.60
12061;BMP180;6091;51.432;6.880;2022-07-23T12:33:54;101209.00;;;35.60
12061;BMP180;6091;51.432;6.880;2022-07-23T12:36:38;101211.00;;;35.60
12061;BMP180;6091;51.432;6.880;2022-07-23T12:39:11;101208.00;;;35.50
12061;BMP180;6091;51.432;6.880;2022-07-23T12:41:53;101211.00;;;35.50
12061;BMP180;6091;51.432;6.880;2022-07-23T12:44:20;101208.00;;;35.40
12061;BMP180;6091;51.432;6.880;2022-07-23T12:46:52;101206.00;;;35.50
12061;BMP180;6091;51.432;6.880;2022-07-23T12:49:27;101216.00;;;35.50
12061;BMP180;6091;51.432;6.880;2022-07-23T12:51:56;101215.00;;;35.50
12061;BMP180;6091;51.432;6.880;2022-07-23T12:54:28;101210.00;;;35.60
12061;BMP180;6091;51.432;6.880;2022-07-23T12:56:55;101212.00;;;35.60
12061;BMP180;6091;51.432;6.880;2022-07-23T12:59:22;101216.00;;;35.60
12061;BMP180;6091;51.432;6.880;2022-07-23T13:01:57;101209.00;;;35.60
12061;BMP180;6091;51.432;6.880;2022-07-23T13:04:28;101217.00;;;35.50
12061;BMP180;6091;51.432;6.880;2022-07-23T13:06:59;101220.00;;;35.60
12061;BMP180;6091;51.432;6.880;2022-07-23T13:09:33;101220.00;;;35.60
12061;BMP180;6091;51.432;6.880;2022-07-23T13:12:08;101221.00;;;35.50
12061;BMP180;6091;51.432;6.880;2022-07-23T13:14:37;101221.00;;;35.50
12061;BMP180;6091;51.432;6.880;2022-07-23T13:17:05;101221.00;;;35.50
12061;BMP180;6091;51.432;6.880;2022-07-23T13:19:33;101227.00;;;35.60
12061;BMP180;6091;51.432;6.880;2022-07-23T13:22:01;101233.00;;;35.60
12061;BMP180;6091;51.432;6.880;2022-07-23T13:24:35;101231.00;;;35.60
12061;BMP180;6091;51.432;6.880;2022-07-23T13:27:06;101231.00;;;35.60
12061;BMP180;6091;51.432;6.880;2022-07-23T13:29:39;101225.00;;;35.60
12061;BMP180;6091;51.432;6.880;2022-07-23T13:32:06;101219.00;;;35.60
12061;BMP180;6091;51.432;6.880;2022-07-23T13:34:39;101219.00;;;35.40
12061;BMP180;6091;51.432;6.880;2022-07-23T13:37:08;101217.00;;;35.30
12061;BMP180;6091;51.432;6.880;2022-07-23T13:39:35;101213.00;;;35.20
12061;BMP180;6091;51.432;6.880;2022-07-23T13:42:05;101210.00;;;35.00
12061;BMP180;6091;51.432;6.880;2022-07-23T13:44:34;101206.00;;;34.90
12061;BMP180;6091;51.432;6.880;2022-07-23T13:47:03;101204.00;;;34.80
12061;BMP180;6091;51.432;6.880;2022-07-23T13:49:31;101204.00;;;34.70
12061;BMP180;6091;51.432;6.880;2022-07-23T13:51:58;101206.00;;;34.50
12061;BMP180;6091;51.432;6.880;2022-07-23T13:54:25;101197.00;;;34.40
12061;BMP180;6091;51.432;6.880;2022-07-23T13:57:12;101188.00;;;34.30
12061;BMP180;6091;51.432;6.880;2022-07-23T13:59:39;101198.00;;;34.20
12061;BMP180;6091;51.432;6.880;2022-07-23T14:02:07;101190.00;;;34.10
12061;BMP180;6091;51.432;6.880;2022-07-23T14:04:49;101187.00;;;34.00
12061;BMP180;6091;51.432;6.880;2022-07-23T14:07:17;101183.00;;;33.80
12061;BMP180;6091;51.432;6.880;2022-07-23T14:09:45;101181.00;;;33.80
12061;BMP180;6091;51.432;6.880;2022-07-23T14:12:12;101186.00;;;33.70
12061;BMP180;6091;51.432;6.880;2022-07-23T14:14:44;101192.00;;;33.60
12061;BMP180;6091;51.432;6.880;2022-07-23T14:17:11;101186.00;;;33.50
12061;BMP180;6091;51.432;6.880;2022-07-23T14:19:38;101190.00;;;33.40
12061;BMP180;6091;51.432;6.880;2022-07-23T14:22:06;101185.00;;;33.30
12061;BMP180;6091;51.432;6.880;2022-07-23T14:24:34;101179.00;;;33.20
12061;BMP180;6091;51.432;6.880;2022-07-23T14:27:03;101180.00;;;33.20
12061;BMP180;6091;51.432;6.880;2022-07-23T14:29:32;101182.00;;;33.10
12061;BMP180;6091;51.432;6.880;2022-07-23T14:32:03;101181.00;;;33.10
12061;BMP180;6091;51.432;6.880;2022-07-23T14:34:30;101172.00;;;33.00
12061;BMP180;6091;51.432;6.880;2022-07-23T14:37:01;101171.00;;;33.00
12061;BMP180;6091;51.432;6.880;2022-07-23T14:39:30;101175.00;;;32.90
12061;BMP180;6091;51.432;6.880;2022-07-23T14:41:59;101175.00;;;32.90
12061;BMP180;6091;51.432;6.880;2022-07-23T14:44:27;101170.00;;;32.80
12061;BMP180;6091;51.432;6.880;2022-07-23T14:46:54;101176.00;;;32.80